createdAt,value
2022-08-06T00:00:07.791Z,97772.31
2022-08-06T00:03:01.052Z,97770.34
2022-08-06T00:06:03.433Z,97772.06
2022-08-06T00:09:05.582Z,97776.59
2022-08-06T00:12:10.749Z,97773.75
2022-08-06T00:15:14.394Z,97773.66
2022-08-06T00:18:18.132Z,97776.91
2022-08-06T00:21:42.156Z,97764.69
2022-08-06T00:24:42.714Z,97769.59
2022-08-06T00:27:51.250Z,97769.97
2022-08-06T00:30:54.434Z,97775.38
2022-08-06T00:34:05.343Z,97770.97
2022-08-06T00:37:18.383Z,97776.44
2022-08-06T00:40:24.252Z,97766.72
2022-08-06T00:43:39.608Z,97762.63
2022-08-06T00:46:44.903Z,97763.19
2022-08-06T00:49:49.953Z,97760.75
2022-08-06T00:52:52.807Z,97763.19
2022-08-06T00:56:01.193Z,97750.13
2022-08-06T00:59:05.164Z,97746.28
2022-08-06T01:02:14.722Z,97753.44
2022-08-06T01:06:04.096Z,97746.84
2022-08-06T01:08:41.569Z,97748.91
2022-08-06T01:11:43.784Z,97750.72
2022-08-06T01:15:02.510Z,97753.94
2022-08-06T01:18:14.049Z,97751.31
2022-08-06T01:22:29.702Z,97742.72
2022-08-06T01:25:18.485Z,97744.53
2022-08-06T01:28:28.621Z,97748.75
2022-08-06T01:31:44.853Z,97768.19
2022-08-06T01:34:53.347Z,97760.41
2022-08-06T01:38:13.758Z,97762.41
2022-08-06T01:41:54.949Z,97771.06
2022-08-06T01:45:02.419Z,97773.94
2022-08-06T01:48:08.103Z,97772.63
2022-08-06T01:51:17.060Z,97767.91
2022-08-06T01:54:20.968Z,97768.63
2022-08-06T01:57:32.808Z,97771.16
2022-08-06T02:00:49.691Z,97762.19
2022-08-06T02:03:59.441Z,97764.75
2022-08-06T02:07:04.835Z,97777.78
2022-08-06T02:10:18.719Z,97768.78
2022-08-06T02:13:23.599Z,97764.38
2022-08-06T02:16:26.504Z,97763.19
2022-08-06T02:19:47.903Z,97760.63
2022-08-06T02:22:53.215Z,97766.84
2022-08-06T02:25:56.797Z,97773.72
2022-08-06T02:29:00.608Z,97772.78
2022-08-06T02:32:02.779Z,97774.88
2022-08-06T02:35:05.359Z,97794.34
2022-08-06T02:38:29.392Z,97794.47
2022-08-06T02:41:55.624Z,97801.25
2022-08-06T02:45:04.685Z,97799.66
2022-08-06T02:48:22.189Z,97817.94
2022-08-06T02:52:10.545Z,97812.91
2022-08-06T02:55:16.137Z,97818.53
2022-08-06T02:58:36.588Z,97818.94
2022-08-06T03:01:53.165Z,97828.75
2022-08-06T03:04:58.678Z,97833.63
2022-08-06T03:08:08.217Z,97841.28
2022-08-06T03:11:13.494Z,97843.88
2022-08-06T03:15:04.355Z,97846.41
2022-08-06T03:17:42.941Z,97848.94
2022-08-06T03:20:49.581Z,97848.03
2022-08-06T03:23:53.247Z,97852.44
2022-08-06T03:27:01.167Z,97851.28
2022-08-06T03:30:05.557Z,97855.94
2022-08-06T03:33:29.180Z,97857.31
2022-08-06T03:36:38.160Z,97868.22
2022-08-06T03:39:47.172Z,97859.91
2022-08-06T03:42:55.465Z,97867.78
2022-08-06T03:46:08.153Z,97862.34
2022-08-06T03:49:15.403Z,97864.50
2022-08-06T03:52:31.985Z,97870.59
2022-08-06T03:55:36.880Z,97875.63
2022-08-06T03:58:41.246Z,97869.66
2022-08-06T04:01:50.530Z,97872.06
2022-08-06T04:04:53.889Z,97871.19
2022-08-06T04:07:59.133Z,97878.59
2022-08-06T04:11:07.870Z,97869.56
2022-08-06T04:14:32.045Z,97882.13
2022-08-06T04:17:37.115Z,97880.81
2022-08-06T04:20:48.235Z,97890.31
2022-08-06T04:23:56.283Z,97891.03
2022-08-06T04:27:00.730Z,97892.56
2022-08-06T04:30:09.367Z,97891.03
2022-08-06T04:33:17.559Z,97896.41
2022-08-06T04:36:25.435Z,97900.44
2022-08-06T04:39:38.014Z,97905.56
2022-08-06T04:42:53.214Z,97912.47
2022-08-06T04:46:14.190Z,97936.88
2022-08-06T04:49:20.163Z,97957.59
2022-08-06T04:52:36.392Z,97989.44
2022-08-06T04:55:52.219Z,98001.78
2022-08-06T04:59:09.074Z,98011.09
2022-08-06T05:02:13.061Z,98014.63
2022-08-06T05:05:16.973Z,98020.31
2022-08-06T05:08:27.388Z,98031.78
2022-08-06T05:11:35.527Z,98029.59
2022-08-06T05:14:55.815Z,98040.28
2022-08-06T05:19:16.729Z,98051.44
2022-08-06T05:22:05.277Z,98054.19
2022-08-06T05:25:09.909Z,98065.06
2022-08-06T05:28:19.537Z,98073.44
2022-08-06T05:31:38.673Z,98063.47
2022-08-06T05:34:41.950Z,98083.91
2022-08-06T05:38:01.543Z,98077.97
2022-08-06T05:41:12.469Z,98115.16
2022-08-06T05:44:16.018Z,98087.94
2022-08-06T05:47:22.912Z,98085.00
2022-08-06T05:50:29.343Z,98096.94
2022-08-06T05:54:03.372Z,98087.22
2022-08-06T05:57:20.056Z,98085.38
2022-08-06T06:00:44.705Z,98083.00
2022-08-06T06:03:48.915Z,98081.13
2022-08-06T06:06:54.637Z,98090.75
2022-08-06T06:10:03.555Z,98100.28
2022-08-06T06:13:24.278Z,98093.31
2022-08-06T06:16:31.681Z,98084.72
2022-08-06T06:19:39.045Z,98096.97
2022-08-06T06:23:07.876Z,98114.34
2022-08-06T06:26:32.875Z,98117.00
2022-08-06T06:30:05.821Z,98133.47
2022-08-06T06:33:51.476Z,98143.59
2022-08-06T06:37:41.159Z,98130.31
2022-08-06T06:41:32.186Z,98133.72
2022-08-06T06:45:04.095Z,98130.31
2022-08-06T06:48:23.620Z,98154.13
2022-08-06T06:51:56.465Z,98151.69
2022-08-06T06:55:00.016Z,98147.22
2022-08-06T06:58:12.528Z,98152.34
2022-08-06T07:01:29.998Z,98141.84
2022-08-06T07:04:38.965Z,98144.34
2022-08-06T07:07:49.728Z,98150.47
2022-08-06T07:10:56.326Z,98151.16
2022-08-06T07:14:03.849Z,98148.84
2022-08-06T07:17:46.162Z,98150.81
2022-08-06T07:20:36.318Z,98164.69
2022-08-06T07:24:06.544Z,98151.91
2022-08-06T07:27:15.165Z,98166.00
2022-08-06T07:30:21.332Z,98172.28
2022-08-06T07:33:29.432Z,98168.34
2022-08-06T07:36:57.197Z,98173.56
2022-08-06T07:40:02.701Z,98168.22
2022-08-06T07:43:25.196Z,98177.50
2022-08-06T07:46:33.533Z,98162.56
2022-08-06T07:50:00.224Z,98157.53
2022-08-06T07:53:04.021Z,98153.53
2022-08-06T07:56:07.304Z,98170.81
2022-08-06T07:59:11.880Z,98180.41
2022-08-06T08:02:17.473Z,98183.47
2022-08-06T08:06:01.067Z,98192.31
2022-08-06T08:09:08.299Z,98201.47
2022-08-06T08:12:26.412Z,98205.78
2022-08-06T08:15:43.200Z,98213.59
2022-08-06T08:18:46.184Z,98208.59
2022-08-06T08:21:49.744Z,98211.94
2022-08-06T08:24:53.869Z,98233.72
2022-08-06T08:27:57.506Z,98225.09
2022-08-06T08:31:15.551Z,98227.69
2022-08-06T08:34:27.212Z,98224.63
2022-08-06T08:37:32.230Z,98235.00
2022-08-06T08:40:35.885Z,98228.84
2022-08-06T08:44:00.674Z,98228.84
2022-08-06T08:47:12.424Z,98228.22
2022-08-06T08:50:18.440Z,98251.19
2022-08-06T08:53:45.516Z,98264.16
2022-08-06T08:57:08.282Z,98255.81
2022-08-06T09:00:12.612Z,98261.03
2022-08-06T09:03:24.898Z,98257.13
2022-08-06T09:06:30.568Z,98278.41
2022-08-06T09:09:36.176Z,98257.78
2022-08-06T09:12:44.891Z,98283.91
2022-08-06T09:15:55.308Z,98289.44
2022-08-06T09:18:57.499Z,98303.84
2022-08-06T09:22:02.248Z,98288.53
2022-08-06T09:25:07.942Z,98312.97
2022-08-06T09:28:29.255Z,98309.88
2022-08-06T09:31:44.811Z,98311.78
2022-08-06T09:34:50.676Z,98312.81
2022-08-06T09:38:06.286Z,98315.78
2022-08-06T09:41:15.652Z,98313.56
2022-08-06T09:44:35.454Z,98315.38
2022-08-06T09:47:39.473Z,98314.47
2022-08-06T09:50:44.339Z,98320.72
2022-08-06T09:54:05.586Z,98337.41
2022-08-06T09:57:34.704Z,98340.84
2022-08-06T10:00:39.794Z,98344.19
2022-08-06T10:04:03.698Z,98339.53
2022-08-06T10:07:06.354Z,98332.50
2022-08-06T10:10:10.592Z,98322.09
2022-08-06T10:13:20.190Z,98318.91
2022-08-06T10:16:29.153Z,98322.13
2022-08-06T10:19:35.990Z,98324.16
2022-08-06T10:22:57.635Z,98339.38
2022-08-06T10:26:05.574Z,98344.84
2022-08-06T10:29:08.579Z,98338.41
2022-08-06T10:32:16.287Z,98342.47
2022-08-06T10:35:22.232Z,98354.09
2022-08-06T10:38:35.117Z,98356.94
2022-08-06T10:42:00.471Z,98356.94
2022-08-06T10:45:08.092Z,98362.25
2022-08-06T10:48:58.841Z,98355.00
2022-08-06T10:51:56.122Z,98365.31
2022-08-06T10:55:03.525Z,98359.03
2022-08-06T10:58:06.007Z,98345.22
2022-08-06T11:01:23.120Z,98354.81
2022-08-06T11:04:32.598Z,98353.06
2022-08-06T11:08:09.537Z,98360.44
2022-08-06T11:12:20.779Z,98353.38
2022-08-06T11:15:25.625Z,98357.03
2022-08-06T11:18:31.531Z,98348.81
2022-08-06T11:21:59.218Z,98373.50
2022-08-06T11:25:25.252Z,98352.31
2022-08-06T11:28:34.400Z,98358.41
2022-08-06T11:31:56.512Z,98367.25
2022-08-06T11:34:59.119Z,98365.34
2022-08-06T11:38:25.028Z,98360.88
2022-08-06T11:41:55.316Z,98360.63
2022-08-06T11:45:06.265Z,98362.44
2022-08-06T11:48:12.984Z,98356.50
2022-08-06T11:51:42.463Z,98363.16
2022-08-06T11:54:46.729Z,98373.00
2022-08-06T11:57:51.658Z,98355.44
2022-08-06T12:01:03.019Z,98363.69
2022-08-06T12:04:33.737Z,98347.41
2022-08-06T12:07:38.205Z,98359.50
2022-08-06T12:11:36.260Z,98365.09
2022-08-06T12:14:49.195Z,98353.06
2022-08-06T12:18:18.737Z,98353.94
2022-08-06T12:21:20.754Z,98328.66
2022-08-06T12:24:45.528Z,98360.94
2022-08-06T12:27:55.089Z,98346.56
2022-08-06T12:30:57.241Z,98323.53
2022-08-06T12:33:59.787Z,98329.81
2022-08-06T12:37:02.136Z,98323.88
2022-08-06T12:40:25.024Z,98330.91
2022-08-06T12:43:46.392Z,98335.34
2022-08-06T12:46:54.182Z,98327.72
2022-08-06T12:49:56.436Z,98326.16
2022-08-06T12:53:06.004Z,98334.94
2022-08-06T12:56:29.158Z,98332.88
2022-08-06T12:59:42.905Z,98337.75
2022-08-06T13:02:48.701Z,98342.88
2022-08-06T13:05:52.094Z,98349.22
2022-08-06T13:08:55.390Z,98350.31
2022-08-06T13:11:57.246Z,98355.66
2022-08-06T13:15:09.986Z,98343.94
2022-08-06T13:18:41.752Z,98350.03
2022-08-06T13:21:56.856Z,98368.59
2022-08-06T13:25:31.059Z,98342.69
2022-08-06T13:28:38.373Z,98342.94
2022-08-06T13:31:58.679Z,98359.63
2022-08-06T13:35:08.065Z,98351.72
2022-08-06T13:38:17.268Z,98376.19
2022-08-06T13:41:29.663Z,98346.94
2022-08-06T13:44:44.137Z,98354.84
2022-08-06T13:47:58.529Z,98346.66
2022-08-06T13:51:04.830Z,98355.22
2022-08-06T13:54:18.825Z,98357.91
2022-08-06T13:57:22.107Z,98353.28
2022-08-06T14:00:25.557Z,98341.00
2022-08-06T14:03:38.238Z,98375.81
2022-08-06T14:06:44.802Z,98348.94
2022-08-06T14:10:08.660Z,98351.94
2022-08-06T14:13:18.266Z,98360.56
2022-08-06T14:16:24.299Z,98349.34
2022-08-06T14:20:08.904Z,98344.84
2022-08-06T14:22:50.825Z,98348.38
2022-08-06T14:26:03.262Z,98357.75
2022-08-06T14:30:26.106Z,98355.84
2022-08-06T14:32:31.353Z,98348.94
2022-08-06T14:35:39.925Z,98361.47
2022-08-06T14:38:49.484Z,98356.63
2022-08-06T14:42:10.813Z,98356.38
2022-08-06T14:45:14.917Z,98361.53
2022-08-06T14:48:31.112Z,98356.19
2022-08-06T14:52:18.041Z,98355.28
2022-08-06T14:55:06.802Z,98366.38
2022-08-06T14:58:10.963Z,98348.03
2022-08-06T15:01:17.118Z,98353.22
2022-08-06T15:04:24.743Z,98358.03
2022-08-06T15:07:41.439Z,98358.72
2022-08-06T15:10:44.498Z,98355.28
2022-08-06T15:13:51.925Z,98359.38
2022-08-06T15:17:29.958Z,98362.44
2022-08-06T15:20:25.235Z,98357.19
2022-08-06T15:23:44.862Z,98375.41
2022-08-06T15:26:51.014Z,98364.00
2022-08-06T15:29:52.991Z,98354.72
2022-08-06T15:32:56.780Z,98370.78
2022-08-06T15:35:59.898Z,98381.16
2022-08-06T15:39:09.204Z,98376.47
2022-08-06T15:42:12.468Z,98373.41
2022-08-06T15:45:49.906Z,98372.84
2022-08-06T15:48:46.866Z,98370.47
2022-08-06T15:52:01.133Z,98368.31
2022-08-06T15:55:16.466Z,98379.31
2022-08-06T15:58:28.933Z,98357.88
2022-08-06T16:01:52.187Z,98374.38
2022-08-06T16:04:56.175Z,98359.19
2022-08-06T16:07:58.546Z,98373.31
2022-08-06T16:11:01.138Z,98366.34
2022-08-06T16:14:11.896Z,98364.94
2022-08-06T16:17:14.530Z,98363.81
2022-08-06T16:20:36.466Z,98363.50
2022-08-06T16:23:57.276Z,98368.81
2022-08-06T16:27:04.648Z,98380.94
2022-08-06T16:30:07.458Z,98378.47
2022-08-06T16:33:11.774Z,98370.28
2022-08-06T16:36:16.893Z,98389.38
2022-08-06T16:39:35.044Z,98383.41
2022-08-06T16:42:38.068Z,98370.72
2022-08-06T16:45:40.427Z,98377.66
2022-08-06T16:48:42.508Z,98377.50
2022-08-06T16:52:41.919Z,98386.25
2022-08-06T16:55:13.630Z,98380.31
2022-08-06T16:58:34.971Z,98383.59
2022-08-06T17:02:14.120Z,98380.72
2022-08-06T17:05:03.672Z,98384.19
2022-08-06T17:08:06.937Z,98388.69
2022-08-06T17:11:45.283Z,98398.94
2022-08-06T17:14:33.058Z,98403.03
2022-08-06T17:17:37.478Z,98401.84
2022-08-06T17:20:43.169Z,98414.13
2022-08-06T17:23:53.420Z,98409.59
2022-08-06T17:26:56.326Z,98424.66
2022-08-06T17:29:58.535Z,98412.75
2022-08-06T17:33:10.412Z,98419.38
2022-08-06T17:39:39.590Z,98420.56
2022-08-06T17:42:41.995Z,98421.59
2022-08-06T17:45:52.440Z,98425.81
2022-08-06T17:49:06.620Z,98416.91
2022-08-06T17:52:10.314Z,98432.25
2022-08-06T17:55:13.147Z,98426.47
2022-08-06T17:58:38.281Z,98436.66
2022-08-06T18:01:44.678Z,98459.00
2022-08-06T18:04:48.706Z,98440.31
2022-08-06T18:08:06.892Z,98440.19
2022-08-06T18:11:14.205Z,98432.78
2022-08-06T18:14:32.731Z,98447.50
2022-08-06T18:17:47.538Z,98442.38
2022-08-06T18:20:57.629Z,98448.59
2022-08-06T18:24:25.469Z,98453.72
2022-08-06T18:28:03.857Z,98459.75
2022-08-06T18:30:50.249Z,98450.09
2022-08-06T18:33:53.829Z,98468.28
2022-08-06T18:36:56.431Z,98460.94
2022-08-06T18:40:18.777Z,98463.72
2022-08-06T18:43:22.560Z,98470.44
2022-08-06T18:46:57.017Z,98475.94
2022-08-06T18:49:51.632Z,98491.69
2022-08-06T18:52:55.790Z,98501.06
2022-08-06T18:56:04.417Z,98494.34
2022-08-06T18:59:23.794Z,98488.78
2022-08-06T19:02:32.434Z,98488.66
2022-08-06T19:05:40.558Z,98493.34
2022-08-06T19:08:52.272Z,98493.09
2022-08-06T19:11:54.267Z,98502.00
2022-08-06T19:14:56.896Z,98495.75
2022-08-06T19:18:14.232Z,98499.47
2022-08-06T19:21:19.891Z,98488.47
2022-08-06T19:24:35.735Z,98486.25
2022-08-06T19:28:30.856Z,98499.59
2022-08-06T19:31:04.184Z,98493.56
2022-08-06T19:34:09.192Z,98496.00
2022-08-06T19:37:27.118Z,98490.38
2022-08-06T19:40:53.052Z,98489.66
2022-08-06T19:44:26.388Z,98478.00
2022-08-06T19:47:32.944Z,98493.44
2022-08-06T19:50:37.261Z,98501.41
2022-08-06T19:53:40.364Z,98493.72
2022-08-06T19:56:44.220Z,98491.88
2022-08-06T20:00:52.183Z,98488.41
2022-08-06T20:03:18.205Z,98501.97
2022-08-06T20:06:40.150Z,98507.75
2022-08-06T20:10:00.005Z,98513.44
2022-08-06T20:13:06.506Z,98506.00
2022-08-06T20:16:11.666Z,98515.56
2022-08-06T20:19:14.310Z,98524.16
2022-08-06T20:22:16.989Z,98511.59
2022-08-06T20:25:23.800Z,98510.25
2022-08-06T20:29:10.302Z,98514.38
2022-08-06T20:31:55.350Z,98509.72
2022-08-06T20:34:58.125Z,98507.44
2022-08-06T20:38:03.349Z,98506.94
2022-08-06T20:41:59.234Z,98519.31
2022-08-06T20:44:31.681Z,98508.41
2022-08-06T20:47:44.841Z,98500.06
2022-08-06T20:50:50.515Z,98495.28
2022-08-06T20:53:56.228Z,98504.28
2022-08-06T20:57:04.291Z,98497.69
2022-08-06T21:00:15.167Z,98495.66
2022-08-06T21:05:10.340Z,98495.28
2022-08-06T21:06:42.522Z,98502.41
2022-08-06T21:09:48.333Z,98498.50
2022-08-06T21:13:01.172Z,98486.69
2022-08-06T21:16:05.584Z,98476.97
2022-08-06T21:19:18.628Z,98482.28
2022-08-06T21:22:20.790Z,98467.91
2022-08-06T21:25:42.665Z,98472.22
2022-08-06T21:28:54.069Z,98451.59
2022-08-06T21:31:58.583Z,98454.44
2022-08-06T21:35:00.760Z,98462.28
2022-08-06T21:38:03.470Z,98459.38
2022-08-06T21:41:50.058Z,98463.41
2022-08-06T21:44:50.394Z,98458.47
2022-08-06T21:47:53.314Z,98457.66
2022-08-06T21:50:59.749Z,98466.44
2022-08-06T21:54:04.118Z,98477.47
2022-08-06T21:57:11.738Z,98476.53
2022-08-06T22:00:35.063Z,98475.28
2022-08-06T22:04:37.109Z,98473.72
2022-08-06T22:06:59.746Z,98478.03
2022-08-06T22:10:02.873Z,98469.47
2022-08-06T22:13:15.841Z,98468.41
2022-08-06T22:16:18.762Z,98461.16
2022-08-06T22:19:39.191Z,98460.78
2022-08-06T22:22:44.091Z,98463.81
2022-08-06T22:25:54.664Z,98466.56
2022-08-06T22:28:58.235Z,98472.72
2022-08-06T22:32:04.780Z,98467.22
2022-08-06T22:35:09.725Z,98466.41
2022-08-06T22:38:20.453Z,98463.63
2022-08-06T22:41:42.623Z,98460.81
2022-08-06T22:45:48.281Z,98448.53
2022-08-06T22:48:10.395Z,98456.16
2022-08-06T22:51:18.873Z,98454.22
2022-08-06T22:54:58.063Z,98452.84
2022-08-06T22:59:01.817Z,98447.09
2022-08-06T23:02:02.771Z,98450.53
2022-08-06T23:04:41.142Z,98441.84
2022-08-06T23:07:54.142Z,98434.72
2022-08-06T23:10:56.567Z,98429.13
2022-08-06T23:14:00.400Z,98433.16
2022-08-06T23:17:09.402Z,98432.16
2022-08-06T23:20:12.609Z,98425.94
2022-08-06T23:23:29.157Z,98431.16
2022-08-06T23:26:33.099Z,98421.34
2022-08-06T23:29:57.620Z,98415.78
2022-08-06T23:33:01.177Z,98409.44
2022-08-06T23:36:07.938Z,98403.22
2022-08-06T23:39:19.776Z,98414.94
2022-08-06T23:42:23.049Z,98415.19
2022-08-06T23:45:25.119Z,98408.63
2022-08-06T23:48:28.335Z,98413.66
2022-08-06T23:52:01.326Z,98400.41
2022-08-06T23:54:54.109Z,98411.72
2022-08-06T23:57:57.191Z,98403.56
